createdAt,value
2023-04-19T00:00:52.878Z,4.95
2023-04-19T00:03:41.933Z,5.05
2023-04-19T00:06:32.400Z,5.25
2023-04-19T00:09:21.466Z,5.10
2023-04-19T00:12:10.205Z,5.00
2023-04-19T00:14:58.834Z,4.80
2023-04-19T00:17:47.501Z,5.18
2023-04-19T00:20:36.410Z,5.55
2023-04-19T00:23:26.423Z,5.43
2023-04-19T00:26:19.700Z,5.70
2023-04-19T00:29:11.859Z,4.85
2023-04-19T00:32:00.663Z,5.03
2023-04-19T00:34:49.680Z,4.88
2023-04-19T00:37:38.540Z,5.00
2023-04-19T00:40:29.152Z,5.15
2023-04-19T00:43:20.069Z,5.20
2023-04-19T00:46:08.962Z,5.10
2023-04-19T00:48:57.979Z,4.80
2023-04-19T00:51:47.286Z,4.90
2023-04-19T00:54:36.807Z,4.75
2023-04-19T00:57:27.266Z,5.32
2023-04-19T01:00:16.549Z,4.93
2023-04-19T01:03:07.102Z,5.65
2023-04-19T01:05:56.463Z,5.28
2023-04-19T01:08:45.230Z,5.72
2023-04-19T01:11:34.068Z,5.47
2023-04-19T01:14:28.071Z,5.75
2023-04-19T01:17:18.129Z,6.03
2023-04-19T01:20:08.801Z,6.40
2023-04-19T01:22:59.439Z,6.47
2023-04-19T01:25:50.312Z,5.78
2023-04-19T01:28:39.005Z,6.63
2023-04-19T01:31:27.790Z,6.55
2023-04-19T01:34:16.817Z,6.35
2023-04-19T01:37:05.987Z,6.28
2023-04-19T01:39:57.150Z,6.22
2023-04-19T01:42:46.037Z,6.85
2023-04-19T01:45:36.342Z,6.93
2023-04-19T01:48:25.151Z,6.88
2023-04-19T01:51:17.429Z,7.25
2023-04-19T01:54:06.521Z,8.18
2023-04-19T01:56:57.286Z,7.80
2023-04-19T01:59:46.195Z,8.02
2023-04-19T02:02:35.112Z,7.88
2023-04-19T02:05:24.165Z,7.95
2023-04-19T02:08:12.832Z,8.00
2023-04-19T02:11:03.957Z,9.02
2023-04-19T02:13:54.144Z,8.07
2023-04-19T02:16:42.778Z,8.13
2023-04-19T02:19:31.535Z,8.07
2023-04-19T02:22:21.272Z,8.05
2023-04-19T02:25:10.576Z,7.70
2023-04-19T02:27:59.209Z,8.02
2023-04-19T02:30:49.209Z,8.07
2023-04-19T02:33:37.852Z,8.70
2023-04-19T02:36:26.673Z,7.88
2023-04-19T02:39:17.435Z,7.82
2023-04-19T02:42:06.555Z,8.70
2023-04-19T02:44:55.651Z,7.68
2023-04-19T02:47:47.785Z,8.10
2023-04-19T02:50:39.607Z,9.02
2023-04-19T02:53:28.675Z,8.05
2023-04-19T02:56:17.675Z,8.00
2023-04-19T02:59:07.427Z,8.65
2023-04-19T03:01:56.617Z,8.57
2023-04-19T03:04:48.616Z,8.05
2023-04-19T03:07:37.415Z,8.48
2023-04-19T03:10:26.722Z,8.85
2023-04-19T03:13:15.375Z,8.10
2023-04-19T03:16:04.643Z,7.57
2023-04-19T03:18:54.254Z,7.30
2023-04-19T03:21:48.800Z,7.88
2023-04-19T03:24:38.615Z,7.45
2023-04-19T03:27:39.308Z,7.93
2023-04-19T03:30:32.662Z,7.60
2023-04-19T03:33:21.765Z,7.25
2023-04-19T03:36:11.444Z,6.55
2023-04-19T03:39:04.779Z,7.05
2023-04-19T03:41:53.520Z,7.40
2023-04-19T03:45:06.508Z,7.68
2023-04-19T03:48:00.731Z,8.27
2023-04-19T03:50:51.666Z,8.70
2023-04-19T03:53:41.816Z,8.55
2023-04-19T03:56:32.151Z,9.02
2023-04-19T03:59:21.092Z,9.25
2023-04-19T04:02:09.957Z,8.57
2023-04-19T04:04:58.959Z,7.68
2023-04-19T04:07:47.765Z,8.55
2023-04-19T04:10:36.657Z,7.75
2023-04-19T04:13:27.053Z,7.78
2023-04-19T04:16:27.903Z,7.78
2023-04-19T04:19:18.113Z,8.48
2023-04-19T04:22:08.133Z,7.80
2023-04-19T04:25:01.457Z,6.63
2023-04-19T04:27:59.363Z,7.25
2023-04-19T04:30:49.686Z,6.25
2023-04-19T04:33:38.739Z,5.90
2023-04-19T04:36:31.392Z,6.22
2023-04-19T04:39:20.754Z,5.63
2023-04-19T04:42:10.181Z,5.07
2023-04-19T04:45:02.170Z,6.30
2023-04-19T04:47:53.902Z,5.85
2023-04-19T04:50:44.243Z,6.35
2023-04-19T04:53:33.400Z,6.50
2023-04-19T04:56:26.129Z,7.60
2023-04-19T04:59:14.954Z,7.95
2023-04-19T05:02:06.771Z,8.13
2023-04-19T05:04:56.961Z,7.68
2023-04-19T05:07:46.102Z,7.43
2023-04-19T05:10:34.791Z,7.85
2023-04-19T05:13:23.769Z,7.75
2023-04-19T05:16:13.365Z,7.93
2023-04-19T05:19:05.382Z,7.80
2023-04-19T05:22:02.266Z,8.18
2023-04-19T05:24:51.341Z,8.02
2023-04-19T05:27:40.780Z,7.55
2023-04-19T05:30:30.432Z,8.68
2023-04-19T05:33:19.493Z,8.38
2023-04-19T05:36:08.931Z,8.32
2023-04-19T05:38:59.576Z,8.60
2023-04-19T05:41:48.833Z,8.32
2023-04-19T05:44:38.050Z,9.95
2023-04-19T05:47:27.266Z,10.80
2023-04-19T05:50:37.019Z,10.85
2023-04-19T05:54:07.038Z,11.60
2023-04-19T05:56:56.396Z,10.55
2023-04-19T05:59:45.117Z,10.80
2023-04-19T06:02:36.310Z,10.45
2023-04-19T06:05:25.719Z,10.82
2023-04-19T06:08:16.619Z,11.02
2023-04-19T06:11:15.788Z,12.25
2023-04-19T06:14:12.485Z,12.05
2023-04-19T06:17:03.883Z,12.10
2023-04-19T06:19:52.934Z,13.45
2023-04-19T06:22:46.432Z,12.77
2023-04-19T06:25:35.304Z,13.00
2023-04-19T06:28:25.878Z,13.25
2023-04-19T06:31:14.595Z,11.85
2023-04-19T06:34:04.843Z,11.75
2023-04-19T06:36:53.804Z,12.07
2023-04-19T06:39:42.545Z,12.48
2023-04-19T06:42:31.279Z,11.65
2023-04-19T06:45:21.442Z,11.50
2023-04-19T06:48:10.411Z,12.35
2023-04-19T06:50:59.398Z,12.38
2023-04-19T06:53:48.250Z,12.45
2023-04-19T06:56:45.716Z,11.32
2023-04-19T06:59:35.419Z,11.85
2023-04-19T07:02:26.011Z,11.55
2023-04-19T07:05:15.196Z,12.10
2023-04-19T07:08:04.155Z,13.07
2023-04-19T07:10:53.695Z,12.45
2023-04-19T07:13:42.843Z,12.68
2023-04-19T07:16:31.776Z,12.93
2023-04-19T07:19:22.932Z,12.57
2023-04-19T07:22:13.647Z,13.20
2023-04-19T07:25:04.593Z,12.98
2023-04-19T07:27:55.081Z,12.85
2023-04-19T07:30:46.172Z,13.13
2023-04-19T07:33:35.378Z,12.60
2023-04-19T07:36:25.790Z,12.52
2023-04-19T07:39:14.597Z,12.30
2023-04-19T07:42:06.824Z,12.65
2023-04-19T07:44:55.577Z,12.75
2023-04-19T07:47:44.286Z,12.35
2023-04-19T07:50:33.363Z,12.32
2023-04-19T07:53:23.551Z,12.75
2023-04-19T07:56:13.194Z,11.70
2023-04-19T07:59:08.314Z,11.52
2023-04-19T08:02:02.677Z,12.05
2023-04-19T08:04:52.265Z,12.35
2023-04-19T08:07:41.779Z,10.85
2023-04-19T08:10:32.654Z,10.15
2023-04-19T08:13:21.474Z,10.80
2023-04-19T08:16:27.020Z,10.77
2023-04-19T08:19:19.347Z,10.15
2023-04-19T08:22:08.139Z,10.05
2023-04-19T08:24:56.975Z,10.52
2023-04-19T08:27:47.139Z,10.15
2023-04-19T08:30:35.803Z,10.40
2023-04-19T08:33:24.667Z,9.45
2023-04-19T08:36:15.294Z,9.27
2023-04-19T08:39:14.713Z,9.55
2023-04-19T08:42:24.668Z,9.45
2023-04-19T08:45:28.269Z,9.63
2023-04-19T08:48:18.216Z,8.60
2023-04-19T08:51:07.452Z,9.00
2023-04-19T08:53:59.499Z,9.13
2023-04-19T08:56:48.322Z,9.43
2023-04-19T08:59:37.551Z,9.02
2023-04-19T09:02:28.194Z,9.93
2023-04-19T09:05:18.934Z,9.13
2023-04-19T09:08:24.589Z,8.90
2023-04-19T09:11:13.439Z,9.05
2023-04-19T09:14:09.766Z,9.43
2023-04-19T09:17:15.776Z,8.90
2023-04-19T09:20:08.723Z,8.95
2023-04-19T09:23:06.219Z,9.27
2023-04-19T09:26:21.495Z,8.55
2023-04-19T09:29:07.502Z,8.65
2023-04-19T09:32:01.289Z,8.43
2023-04-19T09:34:55.117Z,8.32
2023-04-19T09:38:05.592Z,8.55
2023-04-19T09:41:08.004Z,8.63
2023-04-19T09:44:44.614Z,9.23
2023-04-19T09:47:25.304Z,8.80
2023-04-19T09:50:23.843Z,9.15
2023-04-19T09:53:16.028Z,8.70
2023-04-19T09:56:06.385Z,8.70
2023-04-19T09:59:01.585Z,7.85
2023-04-19T10:01:57.824Z,8.20
2023-04-19T10:05:03.217Z,8.60
2023-04-19T10:08:00.220Z,8.85
2023-04-19T10:10:55.036Z,8.30
2023-04-19T10:13:45.694Z,7.93
2023-04-19T10:16:35.332Z,8.65
2023-04-19T10:19:25.203Z,8.38
2023-04-19T10:22:14.457Z,9.10
2023-04-19T10:25:11.927Z,9.02
2023-04-19T10:28:03.909Z,8.35
2023-04-19T10:30:56.937Z,8.50
2023-04-19T10:33:45.588Z,8.45
2023-04-19T10:36:34.439Z,8.80
2023-04-19T10:39:41.220Z,8.23
2023-04-19T10:43:03.537Z,8.57
2023-04-19T10:45:53.608Z,8.45
2023-04-19T10:48:53.719Z,8.77
2023-04-19T10:51:48.720Z,8.63
2023-04-19T10:54:40.339Z,8.52
2023-04-19T10:57:28.976Z,8.50
2023-04-19T11:00:21.865Z,9.00
2023-04-19T11:03:47.791Z,8.55
2023-04-19T11:06:38.884Z,9.23
2023-04-19T11:09:28.936Z,8.93
2023-04-19T11:12:20.005Z,9.20
2023-04-19T11:15:12.080Z,8.55
2023-04-19T11:18:11.850Z,9.25
2023-04-19T11:21:04.459Z,8.48
2023-04-19T11:26:47.476Z,8.77
2023-04-19T11:29:36.388Z,8.48
2023-04-19T11:32:25.224Z,8.73
2023-04-19T11:35:14.198Z,8.82
2023-04-19T11:38:05.928Z,7.85
2023-04-19T11:41:02.779Z,8.57
2023-04-19T11:43:53.606Z,8.40
2023-04-19T11:46:42.742Z,8.30
2023-04-19T11:49:33.378Z,8.20
2023-04-19T11:52:23.883Z,7.75
2023-04-19T11:55:22.623Z,7.38
2023-04-19T11:58:23.822Z,7.85
2023-04-19T12:01:15.893Z,7.50
2023-04-19T12:04:06.410Z,7.18
2023-04-19T12:06:59.665Z,7.55
2023-04-19T12:09:50.951Z,7.22
2023-04-19T12:12:43.012Z,7.57
2023-04-19T12:15:44.505Z,7.15
2023-04-19T12:18:50.051Z,7.40
2023-04-19T12:21:38.950Z,7.57
2023-04-19T12:24:27.674Z,6.95
2023-04-19T12:27:19.111Z,7.28
2023-04-19T12:30:09.953Z,7.20
2023-04-19T12:32:59.591Z,6.70
2023-04-19T12:35:49.828Z,6.70
2023-04-19T12:38:38.613Z,7.20
2023-04-19T12:41:27.968Z,7.75
2023-04-19T12:44:17.344Z,7.45
2023-04-19T12:47:06.151Z,6.68
2023-04-19T12:49:56.155Z,7.00
2023-04-19T12:52:47.259Z,6.63
2023-04-19T12:55:35.895Z,6.60
2023-04-19T12:58:25.296Z,7.57
2023-04-19T13:01:14.163Z,7.63
2023-04-19T13:04:06.344Z,6.65
2023-04-19T13:06:55.263Z,6.13
2023-04-19T13:09:45.512Z,6.05
2023-04-19T13:12:34.474Z,6.07
2023-04-19T13:15:23.197Z,5.28
2023-04-19T13:18:12.046Z,5.55
2023-04-19T13:21:01.230Z,6.25
2023-04-19T13:23:50.997Z,5.82
2023-04-19T13:26:41.238Z,6.20
2023-04-19T13:29:30.040Z,6.18
2023-04-19T13:32:18.676Z,5.93
2023-04-19T13:35:09.206Z,5.90
2023-04-19T13:37:58.141Z,6.03
2023-04-19T13:40:46.945Z,6.43
2023-04-19T13:43:41.111Z,6.38
2023-04-19T13:46:29.835Z,6.72
2023-04-19T13:49:18.807Z,5.95
2023-04-19T13:52:08.586Z,6.03
2023-04-19T13:54:57.712Z,6.32
2023-04-19T13:57:46.451Z,6.25
2023-04-19T14:00:36.692Z,6.50
2023-04-19T14:03:26.874Z,6.22
2023-04-19T14:06:17.014Z,6.22
2023-04-19T14:09:06.016Z,6.97
2023-04-19T14:11:55.271Z,6.47
2023-04-19T14:14:44.094Z,6.55
2023-04-19T14:17:36.055Z,6.50
2023-04-19T14:20:25.370Z,6.63
2023-04-19T14:23:14.243Z,6.10
2023-04-19T14:26:04.402Z,7.28
2023-04-19T14:28:53.267Z,7.13
2023-04-19T14:31:42.009Z,7.07
2023-04-19T14:34:32.722Z,7.10
2023-04-19T14:37:23.565Z,8.13
2023-04-19T14:40:12.882Z,7.35
2023-04-19T14:43:04.094Z,7.78
2023-04-19T14:45:52.948Z,7.20
2023-04-19T14:48:42.585Z,7.28
2023-04-19T14:51:33.478Z,6.82
2023-04-19T14:54:22.216Z,7.07
2023-04-19T14:57:12.162Z,6.80
2023-04-19T15:00:02.522Z,7.15
2023-04-19T15:02:51.536Z,7.10
2023-04-19T15:05:40.402Z,6.95
2023-04-19T15:08:31.109Z,7.57
2023-04-19T15:11:20.168Z,7.40
2023-04-19T15:14:09.896Z,7.00
2023-04-19T15:16:58.708Z,7.05
2023-04-19T15:19:47.539Z,6.95
2023-04-19T15:22:36.377Z,7.38
2023-04-19T15:25:27.255Z,7.03
2023-04-19T15:28:16.106Z,7.13
2023-04-19T15:31:06.627Z,5.55
2023-04-19T15:33:55.407Z,3.95
2023-04-19T15:36:44.149Z,3.70
2023-04-19T15:39:33.430Z,4.43
2023-04-19T15:42:23.620Z,3.65
2023-04-19T15:45:12.829Z,4.60
2023-04-19T15:48:04.323Z,3.80
2023-04-19T15:50:53.260Z,3.92
2023-04-19T15:53:42.158Z,3.85
2023-04-19T15:56:31.043Z,3.60
2023-04-19T15:59:21.347Z,3.35
2023-04-19T16:02:10.258Z,3.45
2023-04-19T16:04:59.978Z,3.55
2023-04-19T16:07:51.131Z,3.72
2023-04-19T16:10:40.844Z,3.88
2023-04-19T16:13:31.550Z,3.78
2023-04-19T16:16:21.822Z,3.75
2023-04-19T16:19:10.873Z,3.85
2023-04-19T16:22:02.366Z,4.07
2023-04-19T16:24:51.162Z,4.43
2023-04-19T16:27:42.489Z,4.47
2023-04-19T16:30:31.416Z,4.10
2023-04-19T16:33:21.908Z,4.05
2023-04-19T16:36:10.810Z,4.82
2023-04-19T16:38:59.709Z,4.63
2023-04-19T16:41:48.650Z,4.80
2023-04-19T16:44:37.517Z,4.47
2023-04-19T16:47:26.323Z,4.18
2023-04-19T16:50:16.404Z,4.55
2023-04-19T16:53:05.230Z,4.50
2023-04-19T16:55:55.797Z,5.38
2023-04-19T16:58:45.539Z,5.10
2023-04-19T17:01:34.330Z,5.78
2023-04-19T17:04:23.273Z,5.95
2023-04-19T17:07:13.501Z,5.85
2023-04-19T17:10:04.994Z,5.78
2023-04-19T17:12:56.734Z,6.60
2023-04-19T17:15:46.001Z,6.65
2023-04-19T17:18:35.131Z,6.50
2023-04-19T17:21:24.180Z,6.22
2023-04-19T17:24:14.363Z,7.40
2023-04-19T17:27:03.677Z,6.82
2023-04-19T17:29:52.486Z,7.30
2023-04-19T17:32:41.692Z,7.28
2023-04-19T17:35:30.893Z,7.95
2023-04-19T17:38:19.628Z,7.45
2023-04-19T17:41:16.017Z,9.27
2023-04-19T17:44:04.889Z,9.27
2023-04-19T17:46:53.786Z,9.88
2023-04-19T17:49:42.760Z,10.32
2023-04-19T17:52:31.962Z,9.35
2023-04-19T17:55:20.880Z,9.88
2023-04-19T17:58:11.835Z,9.68
2023-04-19T18:01:01.089Z,10.65
2023-04-19T18:03:50.203Z,12.15
2023-04-19T18:06:39.171Z,11.20
2023-04-19T18:09:28.404Z,12.60
2023-04-19T18:12:17.418Z,12.98
2023-04-19T18:15:10.084Z,12.32
2023-04-19T18:17:58.835Z,13.60
2023-04-19T18:20:47.521Z,12.13
2023-04-19T18:23:36.500Z,12.50
2023-04-19T18:26:25.238Z,12.75
2023-04-19T18:29:16.038Z,12.70
2023-04-19T18:32:06.970Z,12.95
2023-04-19T18:34:55.837Z,11.80
2023-04-19T18:37:44.786Z,11.40
2023-04-19T18:40:33.876Z,11.95
2023-04-19T18:43:22.717Z,11.52
2023-04-19T18:46:11.722Z,11.70
2023-04-19T18:49:01.995Z,11.43
2023-04-19T18:51:51.663Z,11.27
2023-04-19T18:54:40.428Z,10.90
2023-04-19T18:57:34.194Z,10.00
2023-04-19T19:00:25.175Z,9.60
2023-04-19T19:03:38.175Z,9.23
2023-04-19T19:06:28.066Z,9.23
2023-04-19T19:09:17.221Z,7.93
2023-04-19T19:12:08.913Z,7.65
2023-04-19T19:14:57.691Z,7.80
2023-04-19T19:17:49.767Z,8.27
2023-04-19T19:20:39.224Z,7.47
2023-04-19T19:23:35.769Z,7.60
2023-04-19T19:26:25.040Z,6.25
2023-04-19T19:29:16.163Z,6.32
2023-04-19T19:32:08.274Z,5.53
2023-04-19T19:35:02.098Z,6.78
2023-04-19T19:37:52.938Z,5.95
2023-04-19T19:41:24.720Z,5.53
2023-04-19T19:43:56.098Z,6.07
2023-04-19T19:46:44.941Z,5.28
2023-04-19T19:49:47.278Z,5.72
2023-04-19T19:52:43.614Z,5.63
2023-04-19T19:55:32.615Z,5.00
2023-04-19T19:58:46.412Z,5.47
2023-04-19T20:01:35.590Z,5.65
2023-04-19T20:04:24.326Z,5.88
2023-04-19T20:10:07.004Z,5.20
2023-04-19T20:12:57.271Z,4.88
2023-04-19T20:15:47.582Z,5.35
2023-04-19T20:18:37.935Z,5.40
2023-04-19T20:21:26.927Z,5.20
2023-04-19T20:24:15.752Z,5.45
2023-04-19T20:27:04.494Z,11.85
2023-04-19T20:29:53.484Z,6.85
2023-04-19T20:32:43.779Z,5.43
2023-04-19T20:35:34.578Z,5.35
2023-04-19T20:38:24.483Z,6.05
2023-04-19T20:41:13.685Z,5.60
2023-04-19T20:44:02.472Z,5.47
2023-04-19T20:46:52.220Z,5.25
2023-04-19T20:49:42.572Z,5.82
2023-04-19T20:52:31.455Z,5.20
2023-04-19T20:55:20.187Z,5.97
2023-04-19T20:58:12.114Z,5.75
2023-04-19T21:01:01.274Z,6.15
2023-04-19T21:03:50.734Z,5.55
2023-04-19T21:06:41.455Z,6.20
2023-04-19T21:09:30.077Z,6.45
2023-04-19T21:12:19.110Z,6.45
2023-04-19T21:15:12.748Z,6.50
2023-04-19T21:18:01.746Z,6.40
2023-04-19T21:20:50.584Z,6.65
2023-04-19T21:23:40.608Z,6.60
2023-04-19T21:26:29.310Z,6.53
2023-04-19T21:29:18.223Z,7.10
2023-04-19T21:32:08.733Z,6.82
2023-04-19T21:34:57.775Z,6.88
2023-04-19T21:37:46.464Z,7.05
2023-04-19T21:40:36.943Z,7.15
2023-04-19T21:43:25.870Z,6.70
2023-04-19T21:46:14.511Z,7.00
2023-04-19T21:49:03.378Z,6.90
2023-04-19T21:51:52.731Z,6.72
2023-04-19T21:54:41.773Z,6.90
2023-04-19T21:57:33.180Z,7.30
2023-04-19T22:00:23.102Z,7.75
2023-04-19T22:03:12.191Z,7.32
2023-04-19T22:06:02.244Z,8.23
2023-04-19T22:08:51.767Z,7.25
2023-04-19T22:11:40.823Z,7.55
2023-04-19T22:14:31.429Z,7.63
2023-04-19T22:17:20.888Z,7.07
2023-04-19T22:20:12.911Z,7.20
2023-04-19T22:23:02.207Z,7.03
2023-04-19T22:25:50.984Z,7.35
2023-04-19T22:28:40.311Z,9.73
2023-04-19T22:31:30.906Z,7.60
2023-04-19T22:34:19.685Z,7.65
2023-04-19T22:37:19.422Z,7.78
2023-04-19T22:40:09.710Z,8.18
2023-04-19T22:42:58.394Z,8.65
2023-04-19T22:45:48.152Z,8.25
2023-04-19T22:48:38.420Z,7.97
2023-04-19T22:51:28.096Z,8.23
2023-04-19T22:54:16.783Z,8.07
2023-04-19T22:57:05.544Z,8.55
2023-04-19T22:59:54.231Z,8.15
2023-04-19T23:02:43.008Z,8.40
2023-04-19T23:05:33.695Z,7.90
2023-04-19T23:08:22.418Z,8.43
2023-04-19T23:11:11.631Z,8.30
2023-04-19T23:14:00.314Z,8.38
2023-04-19T23:16:49.369Z,8.27
2023-04-19T23:19:38.970Z,8.65
2023-04-19T23:22:29.419Z,8.57
2023-04-19T23:25:18.434Z,7.78
2023-04-19T23:28:09.341Z,8.02
2023-04-19T23:30:59.095Z,8.10
2023-04-19T23:33:47.769Z,8.63
2023-04-19T23:36:36.779Z,8.57
2023-04-19T23:39:27.107Z,7.68
2023-04-19T23:42:16.016Z,8.55
2023-04-19T23:45:05.399Z,8.15
2023-04-19T23:47:54.440Z,8.20
2023-04-19T23:50:44.796Z,8.73
2023-04-19T23:53:33.703Z,8.45
2023-04-19T23:56:23.802Z,8.68
2023-04-19T23:59:12.570Z,7.97
